Terminal Aerodrome Forecast
Issued by NWS Bismarck, ND

Home | Current Version | Previous Version | Graphics & Text | Print | Product List | Glossary On
Versions: 1 2 3 4 5 6 7 8 9 10 11 12 13 14 15 16 17
000
FTUS43 KBIS 212339
TAFBIS
TAF
KBIS 212339Z 2200/2224 33011KT P6SM SKC
     FM220300 36007KT P6SM SKC
     FM220800 02010KT P6SM FEW070 SCT180
     FM221100 03011KT P6SM VCSH SCT050 BKN070
     FM221400 04017G26KT P6SM VCSH BKN035 OVC060
     FM221700 03015G23KT P6SM BKN025 OVC050
     FM222100 02011KT P6SM OVC015=

USA.gov is the U.S. government's official web portal to all federal, state and local government web resources and services.